Time;durP1;ratioP1;P1;durP2;ratioP2;P2;SDS_P1;SDS_P2;PMS_P1;PMS_P2;Temp;Humidity;BMP_temperature;BMP_pressure;BME280_temperature;BME280_humidity;BME280_pressure;Samples;Min_cycle;Max_cycle;Signal;HPM_P1;HPM_P2
2021/10/15 00:01:58;;;;;;;2.75;1.10;;;19.50;56.60;;;;;;5116889;28;20106;-53
2021/10/15 00:04:23;;;;;;;3.28;1.27;;;19.50;56.70;;;;;;5116714;28;20110;-51
2021/10/15 00:06:49;;;;;;;3.38;1.60;;;19.40;56.60;;;;;;5116773;28;20475;-54
2021/10/15 00:09:14;;;;;;;2.85;1.33;;;19.40;56.60;;;;;;5116725;28;20471;-56
2021/10/15 00:11:40;;;;;;;4.20;1.40;;;19.40;56.60;;;;;;5116589;28;20031;-58
2021/10/15 00:14:05;;;;;;;3.58;1.50;;;19.40;56.60;;;;;;5116543;28;20030;-56
2021/10/15 00:16:31;;;;;;;3.30;1.15;;;19.50;56.70;;;;;;5116541;28;20149;-60
2021/10/15 00:18:57;;;;;;;3.05;1.40;;;19.40;56.60;;;;;;5116365;28;20122;-55
2021/10/15 00:21:22;;;;;;;2.28;0.90;;;19.40;56.60;;;;;;5098550;28;20402;-57
2021/10/15 00:23:48;;;;;;;3.33;1.15;;;19.50;56.60;;;;;;5116401;28;20038;-54
2021/10/15 00:26:13;;;;;;;3.65;1.30;;;19.40;56.60;;;;;;5116331;28;20096;-53
2021/10/15 00:28:39;;;;;;;4.28;1.25;;;19.40;56.70;;;;;;5116340;28;20055;-58
2021/10/15 00:31:04;;;;;;;3.03;1.30;;;19.40;56.60;;;;;;5116336;28;20019;-56
2021/10/15 00:33:30;;;;;;;3.15;1.23;;;19.40;56.70;;;;;;5116083;28;20030;-56
2021/10/15 00:35:56;;;;;;;3.45;1.55;;;19.40;56.60;;;;;;5116401;28;20032;-52
2021/10/15 00:38:21;;;;;;;4.20;1.35;;;19.40;56.60;;;;;;5116055;28;20492;-57
2021/10/15 00:40:47;;;;;;;3.30;1.27;;;19.40;56.60;;;;;;5115972;28;20398;-54
2021/10/15 00:43:13;;;;;;;3.20;1.35;;;19.40;56.60;;;;;;5116126;28;20027;-56
2021/10/15 00:45:39;;;;;;;3.28;1.48;;;19.40;56.60;;;;;;5116052;28;20015;-55
2021/10/15 00:48:05;;;;;;;3.20;1.00;;;19.40;56.60;;;;;;5115934;28;20030;-55
2021/10/15 00:50:30;;;;;;;3.10;1.30;;;19.40;56.60;;;;;;5115885;28;20120;-52
2021/10/15 00:52:56;;;;;;;2.60;1.35;;;19.40;56.60;;;;;;5115930;28;20102;-51
2021/10/15 00:55:21;;;;;;;2.58;1.20;;;19.40;56.60;;;;;;5116013;28;20068;-56
2021/10/15 00:57:47;;;;;;;3.47;1.33;;;19.40;56.60;;;;;;5115749;28;20031;-57
2021/10/15 01:00:13;;;;;;;4.18;1.45;;;19.40;56.60;;;;;;5115755;28;20381;-56
2021/10/15 01:02:41;;;;;;;3.45;1.40;;;19.40;56.60;;;;;;5115572;28;20140;-52
2021/10/15 01:05:07;;;;;;;2.72;1.23;;;19.40;56.60;;;;;;5116173;28;20027;-54
2021/10/15 01:07:32;;;;;;;3.50;1.42;;;19.40;56.60;;;;;;5115639;28;20027;-52
2021/10/15 01:09:58;;;;;;;2.53;1.10;;;19.40;56.60;;;;;;5114577;28;20027;-53
2021/10/15 01:12:24;;;;;;;2.38;1.13;;;19.40;56.60;;;;;;5115527;28;20084;-56
2021/10/15 01:14:50;;;;;;;3.55;1.35;;;19.40;56.60;;;;;;5115466;28;20112;-54
2021/10/15 01:17:15;;;;;;;4.32;1.80;;;19.40;56.60;;;;;;5115253;28;20055;-59
2021/10/15 01:19:41;;;;;;;2.85;1.27;;;19.30;56.50;;;;;;5115597;28;20395;-56
2021/10/15 01:22:08;;;;;;;5.20;1.50;;;19.40;56.60;;;;;;5115544;28;20096;-52
2021/10/15 01:24:35;;;;;;;2.92;0.90;;;19.40;56.60;;;;;;5115327;28;20028;-53
2021/10/15 01:27:10;;;;;;;3.20;1.40;;;19.30;56.60;;;;;;5115320;28;20024;-56
2021/10/15 01:29:36;;;;;;;3.45;1.50;;;19.30;56.60;;;;;;5096825;28;20051;-51
2021/10/15 01:32:04;;;;;;;3.10;1.23;;;19.40;56.60;;;;;;5115351;28;20042;-54
2021/10/15 01:34:29;;;;;;;3.67;1.33;;;19.40;56.60;;;;;;5114994;28;20016;-52
2021/10/15 01:36:55;;;;;;;3.45;1.48;;;19.30;56.50;;;;;;5115119;28;20103;-56
2021/10/15 01:39:20;;;;;;;3.15;1.33;;;19.30;56.60;;;;;;5114685;28;20048;-54
2021/10/15 01:41:46;;;;;;;3.13;1.05;;;19.30;56.60;;;;;;5114929;28;20024;-56
2021/10/15 01:44:11;;;;;;;2.50;1.23;;;19.40;56.60;;;;;;5115046;28;20024;-59
2021/10/15 01:46:37;;;;;;;4.95;1.50;;;19.30;56.60;;;;;;5114803;28;20379;-54
2021/10/15 01:49:03;;;;;;;3.35;1.20;;;19.30;56.60;;;;;;5114740;28;20028;-55
2021/10/15 01:51:28;;;;;;;2.47;1.00;;;19.30;56.60;;;;;;5114750;28;20028;-54
2021/10/15 01:53:54;;;;;;;3.42;1.50;;;19.30;56.60;;;;;;5114894;28;20027;-53
2021/10/15 01:56:19;;;;;;;3.90;1.40;;;19.30;56.60;;;;;;5114626;28;20027;-52
2021/10/15 01:58:45;;;;;;;3.22;1.02;;;19.30;56.50;;;;;;5114408;28;20045;-53
2021/10/15 02:01:11;;;;;;;3.65;1.25;;;19.40;56.50;;;;;;5114448;28;20032;-58
2021/10/15 02:03:36;;;;;;;4.60;1.48;;;19.30;56.50;;;;;;5114431;28;20027;-54
2021/10/15 02:06:02;;;;;;;3.63;1.35;;;19.30;56.50;;;;;;5096178;28;20016;-51
2021/10/15 02:08:27;;;;;;;2.90;1.20;;;19.30;56.60;;;;;;5114394;28;20039;-53
2021/10/15 02:10:53;;;;;;;3.33;1.30;;;19.30;56.50;;;;;;5114571;28;20023;-55
2021/10/15 02:13:18;;;;;;;4.95;1.27;;;19.30;56.50;;;;;;5114154;28;20028;-52
2021/10/15 02:15:44;;;;;;;2.60;1.20;;;19.30;56.50;;;;;;5114434;28;20027;-58
2021/10/15 02:18:10;;;;;;;3.15;1.30;;;19.30;56.50;;;;;;5114105;28;20031;-58
2021/10/15 02:20:35;;;;;;;3.80;1.55;;;19.30;56.50;;;;;;5113772;28;20035;-56
2021/10/15 02:23:01;;;;;;;3.40;1.48;;;19.30;56.50;;;;;;5114071;28;20356;-56
2021/10/15 02:25:28;;;;;;;2.67;1.17;;;19.30;56.50;;;;;;5114047;28;20110;-58
2021/10/15 02:27:53;;;;;;;3.15;1.45;;;19.30;56.50;;;;;;5113933;28;20011;-56
2021/10/15 02:30:20;;;;;;;6.85;1.40;;;19.30;56.50;;;;;;5113944;28;20038;-55
2021/10/15 02:32:46;;;;;;;4.72;1.63;;;19.30;56.50;;;;;;5113891;28;20023;-58
2021/10/15 02:35:13;;;;;;;3.00;1.35;;;19.30;56.50;;;;;;5113913;28;20096;-56
2021/10/15 02:37:39;;;;;;;3.45;1.33;;;19.30;56.50;;;;;;5095816;28;20038;-55
2021/10/15 02:40:06;;;;;;;2.67;1.27;;;19.30;56.50;;;;;;5113561;28;20486;-56
2021/10/15 02:42:31;;;;;;;2.85;1.15;;;19.30;56.50;;;;;;5113650;28;20479;-55
2021/10/15 02:44:57;;;;;;;2.70;1.35;;;19.30;56.50;;;;;;5113692;28;20024;-53
2021/10/15 02:47:23;;;;;;;5.00;1.30;;;19.30;56.50;;;;;;5113881;28;20023;-57
2021/10/15 02:49:49;;;;;;;2.90;1.15;;;19.30;56.50;;;;;;5113668;28;20027;-55
2021/10/15 02:52:16;;;;;;;3.25;1.40;;;19.30;56.50;;;;;;5113727;28;20031;-55
2021/10/15 02:54:41;;;;;;;4.30;1.50;;;19.30;56.50;;;;;;5113586;28;20023;-58
2021/10/15 02:57:07;;;;;;;3.40;1.30;;;19.20;56.40;;;;;;5113445;28;20019;-54
2021/10/15 02:59:32;;;;;;;3.28;1.20;;;19.20;56.50;;;;;;5095193;28;20521;-54
2021/10/15 03:01:58;;;;;;;3.97;1.20;;;19.30;56.50;;;;;;5113427;28;20020;-55
2021/10/15 03:04:23;;;;;;;2.20;1.13;;;19.30;56.50;;;;;;5113489;28;20035;-55
2021/10/15 03:06:49;;;;;;;3.72;1.38;;;19.30;56.50;;;;;;5113515;28;20015;-57
2021/10/15 03:09:15;;;;;;;3.47;1.30;;;19.30;56.50;;;;;;5113376;28;20024;-58
2021/10/15 03:11:40;;;;;;;2.45;1.15;;;19.30;56.50;;;;;;5113511;28;20102;-56
2021/10/15 03:14:06;;;;;;;2.83;1.20;;;19.30;56.50;;;;;;5113291;28;20081;-56
2021/10/15 03:16:31;;;;;;;4.05;1.38;;;19.20;56.50;;;;;;5113233;28;20031;-56
2021/10/15 03:18:57;;;;;;;3.20;1.20;;;19.30;56.40;;;;;;5113131;28;20119;-55
2021/10/15 03:21:22;;;;;;;2.40;1.05;;;19.20;56.40;;;;;;5113261;28;20024;-55
2021/10/15 03:23:48;;;;;;;3.08;1.25;;;19.20;56.40;;;;;;5113148;28;20031;-58
2021/10/15 03:26:14;;;;;;;3.15;1.30;;;19.20;56.50;;;;;;5113096;28;20023;-52
2021/10/15 03:28:39;;;;;;;3.97;1.40;;;19.30;56.40;;;;;;5113199;28;20551;-56
2021/10/15 03:31:05;;;;;;;4.25;1.40;;;19.20;56.40;;;;;;5113182;28;20027;-56
2021/10/15 03:33:31;;;;;;;3.35;1.25;;;19.20;56.40;;;;;;5116868;28;20079;-55
2021/10/15 03:35:56;;;;;;;4.68;1.35;;;19.20;56.50;;;;;;5117405;28;20141;-55
2021/10/15 03:38:22;;;;;;;3.05;1.20;;;19.30;56.50;;;;;;5117184;28;20521;-55
2021/10/15 03:40:47;;;;;;;3.38;1.33;;;19.20;56.40;;;;;;5117094;28;20044;-56
2021/10/15 03:43:13;;;;;;;4.28;1.75;;;19.20;56.40;;;;;;5117229;28;20019;-56
2021/10/15 03:45:39;;;;;;;5.38;1.35;;;19.20;56.40;;;;;;5117185;28;20027;-55
2021/10/15 03:48:05;;;;;;;2.88;1.15;;;19.20;56.40;;;;;;5117131;28;20024;-58
2021/10/15 03:50:30;;;;;;;4.45;1.58;;;19.20;56.40;;;;;;5117064;28;20024;-55
2021/10/15 03:52:56;;;;;;;2.97;1.08;;;19.30;56.40;;;;;;5117257;28;20055;-58
2021/10/15 03:55:21;;;;;;;3.58;1.13;;;19.20;56.40;;;;;;5116950;28;20379;-57
2021/10/15 03:57:47;;;;;;;3.95;1.20;;;19.20;56.40;;;;;;5117058;28;20114;-56
2021/10/15 04:00:13;;;;;;;4.40;1.52;;;19.20;56.40;;;;;;5117046;28;20107;-55
2021/10/15 04:02:41;;;;;;;4.00;1.52;;;19.20;56.40;;;;;;5116854;28;20021;-52
2021/10/15 04:05:07;;;;;;;3.53;1.42;;;19.20;56.40;;;;;;5116839;28;20027;-53
2021/10/15 04:07:33;;;;;;;4.90;1.45;;;19.20;56.40;;;;;;5116937;28;20023;-55
2021/10/15 04:09:59;;;;;;;4.00;1.35;;;19.20;56.40;;;;;;5098362;28;20047;-53
2021/10/15 04:12:24;;;;;;;2.92;1.17;;;19.20;56.40;;;;;;5116603;28;20502;-56
2021/10/15 04:14:50;;;;;;;2.78;1.25;;;19.20;56.40;;;;;;5116625;28;20110;-55
2021/10/15 04:17:15;;;;;;;4.47;1.30;;;19.20;56.40;;;;;;5116460;28;20027;-58
2021/10/15 04:19:41;;;;;;;3.40;1.40;;;19.20;56.40;;;;;;5116513;28;20073;-56
2021/10/15 04:22:09;;;;;;;5.28;1.88;;;19.20;56.30;;;;;;5116533;28;20238;-55
2021/10/15 04:24:35;;;;;;;2.58;1.20;;;19.20;56.30;;;;;;5116461;28;20024;-51
2021/10/15 04:27:00;;;;;;;3.35;1.30;;;19.20;56.30;;;;;;5116452;28;20479;-55
2021/10/15 04:29:26;;;;;;;3.10;1.10;;;19.20;56.30;;;;;;5116536;28;20020;-52
2021/10/15 04:31:51;;;;;;;3.33;1.17;;;19.30;56.20;;;;;;5116300;28;20481;-53
2021/10/15 04:34:17;;;;;;;3.38;1.23;;;19.20;56.20;;;;;;5116232;28;20034;-54
2021/10/15 04:36:42;;;;;;;3.92;1.50;;;19.30;56.20;;;;;;5116203;28;20030;-53
2021/10/15 04:39:08;;;;;;;3.40;1.20;;;19.30;56.20;;;;;;5115703;28;20097;-58
2021/10/15 04:41:33;;;;;;;5.05;1.23;;;19.30;56.20;;;;;;5115982;28;20020;-54
2021/10/15 04:43:59;;;;;;;4.15;1.10;;;19.30;56.20;;;;;;5115637;28;20464;-53
2021/10/15 04:46:26;;;;;;;3.20;1.30;;;19.30;56.20;;;;;;5097694;28;20083;-56
2021/10/15 04:48:52;;;;;;;2.58;1.15;;;19.30;56.20;;;;;;5115912;28;20417;-52
2021/10/15 04:51:17;;;;;;;5.20;1.40;;;19.30;56.20;;;;;;5115948;28;20019;-55
2021/10/15 04:53:43;;;;;;;3.30;1.30;;;19.30;56.20;;;;;;5116011;28;20026;-52
2021/10/15 04:56:08;;;;;;;3.67;1.27;;;19.30;56.20;;;;;;5115848;28;20027;-55
2021/10/15 04:58:34;;;;;;;3.05;1.10;;;19.30;56.20;;;;;;5115935;28;20027;-54
2021/10/15 05:00:59;;;;;;;3.20;1.23;;;19.30;56.20;;;;;;5115859;28;20020;-53
2021/10/15 05:03:25;;;;;;;2.72;1.20;;;19.30;56.20;;;;;;5115353;28;20387;-55
2021/10/15 05:05:50;;;;;;;4.25;1.50;;;19.30;56.20;;;;;;5115495;28;20027;-51
2021/10/15 05:08:16;;;;;;;3.63;1.30;;;19.30;56.20;;;;;;5115502;28;20032;-52
2021/10/15 05:10:44;;;;;;;3.72;1.45;;;19.30;56.20;;;;;;5115421;28;20031;-52
2021/10/15 05:13:13;;;;;;;2.85;1.40;;;19.30;56.20;;;;;;5097160;28;20101;-52
2021/10/15 05:15:39;;;;;;;3.28;1.27;;;19.30;56.20;;;;;;5097180;28;20027;-52
2021/10/15 05:18:04;;;;;;;2.97;1.23;;;19.30;56.20;;;;;;5115144;28;20036;-55
2021/10/15 05:20:30;;;;;;;5.32;1.58;;;19.30;56.20;;;;;;5115341;28;20035;-55
2021/10/15 05:22:55;;;;;;;4.18;1.50;;;19.30;56.20;;;;;;5115149;28;20099;-55
2021/10/15 05:25:21;;;;;;;4.53;1.23;;;19.30;56.20;;;;;;5115270;28;20042;-59
2021/10/15 05:27:46;;;;;;;3.17;1.00;;;19.30;56.20;;;;;;5115160;28;20490;-53
2021/10/15 05:30:12;;;;;;;3.55;1.30;;;19.30;56.20;;;;;;5115167;28;20479;-52
2021/10/15 05:32:38;;;;;;;4.30;1.40;;;19.30;56.20;;;;;;5115063;28;20034;-53
2021/10/15 05:35:06;;;;;;;2.78;1.33;;;19.30;56.20;;;;;;5115067;28;20062;-54
2021/10/15 05:37:32;;;;;;;2.88;1.05;;;19.30;56.20;;;;;;5114812;28;20019;-56
2021/10/15 05:39:57;;;;;;;2.80;1.20;;;19.30;56.20;;;;;;5114697;28;20056;-52
2021/10/15 05:42:23;;;;;;;3.08;0.98;;;19.30;56.20;;;;;;5114761;28;20108;-53
2021/10/15 05:44:48;;;;;;;3.08;1.27;;;19.30;56.20;;;;;;5115188;28;20353;-52
2021/10/15 05:47:14;;;;;;;3.42;1.15;;;19.30;56.20;;;;;;5114762;28;20332;-56
2021/10/15 05:49:40;;;;;;;3.72;1.23;;;19.30;56.20;;;;;;5114735;28;20023;-56
2021/10/15 05:52:16;;;;;;;5.05;1.67;;;19.30;56.20;;;;;;5114667;28;20027;-52
2021/10/15 05:54:48;;;;;;;3.80;1.45;;;19.30;56.20;;;;;;5113937;28;20103;-55
2021/10/15 05:59:58;;;;;;;3.08;1.20;;;19.30;56.20;;;;;;5114801;28;20023;-55
2021/10/15 06:02:23;;;;;;;3.03;1.20;;;19.30;56.20;;;;;;5114457;28;20027;-53
2021/10/15 06:05:37;;;;;;;4.18;1.30;;;19.30;56.20;;;;;;5114606;28;20451;-56
2021/10/15 06:15:47;;;;;;;3.22;1.20;;;19.30;56.20;;;;;;5114611;28;20023;-56
2021/10/15 06:18:16;;;;;;;3.83;1.48;;;19.30;56.20;;;;;;5114103;28;20042;-55
2021/10/15 06:20:42;;;;;;;2.95;1.08;;;19.30;56.20;;;;;;5114124;28;20152;-59
2021/10/15 06:23:08;;;;;;;4.38;1.67;;;19.40;56.20;;;;;;5114089;28;20111;-56
2021/10/15 06:25:34;;;;;;;2.45;1.00;;;19.30;56.20;;;;;;5113918;28;20024;-51
2021/10/15 06:28:01;;;;;;;2.85;1.33;;;19.40;56.20;;;;;;5113847;28;20028;-57
2021/10/15 06:30:27;;;;;;;5.13;1.30;;;19.30;56.20;;;;;;5114089;28;20031;-55
2021/10/15 06:32:53;;;;;;;3.22;1.27;;;19.40;56.20;;;;;;5095679;28;20113;-55
2021/10/15 06:35:19;;;;;;;3.90;1.08;;;19.40;56.20;;;;;;5113840;28;20036;-52
2021/10/15 06:37:44;;;;;;;3.05;1.20;;;19.40;56.20;;;;;;5113629;28;20044;-55
2021/10/15 06:40:11;;;;;;;4.57;1.38;;;19.40;56.20;;;;;;5113557;28;20040;-58
2021/10/15 06:42:36;;;;;;;2.90;1.25;;;19.40;56.10;;;;;;5113659;28;20024;-55
2021/10/15 06:45:03;;;;;;;3.55;1.38;;;19.40;56.10;;;;;;5113550;28;20031;-55
2021/10/15 06:47:28;;;;;;;4.82;1.25;;;19.40;56.10;;;;;;5095244;28;20028;-56
2021/10/15 06:49:55;;;;;;;2.88;1.10;;;19.40;56.10;;;;;;5113683;28;20423;-57
2021/10/15 06:52:21;;;;;;;2.78;1.25;;;19.40;56.10;;;;;;5113488;28;20023;-56
2021/10/15 06:54:46;;;;;;;5.28;1.10;;;19.40;56.20;;;;;;5113300;28;20050;-57
2021/10/15 06:57:12;;;;;;;2.75;1.13;;;19.40;56.10;;;;;;5113344;28;20467;-54
2021/10/15 06:59:38;;;;;;;2.78;1.10;;;19.40;56.20;;;;;;5113349;28;20036;-53
2021/10/15 07:02:04;;;;;;;3.90;1.20;;;19.40;56.10;;;;;;5113641;28;20045;-56
2021/10/15 07:04:29;;;;;;;3.75;1.30;;;19.40;56.10;;;;;;5113379;28;20035;-56
2021/10/15 07:06:55;;;;;;;3.20;1.20;;;19.40;56.10;;;;;;5113376;28;20023;-57
2021/10/15 07:09:21;;;;;;;3.45;1.30;;;19.40;56.20;;;;;;5113253;28;20072;-60
2021/10/15 07:11:47;;;;;;;3.75;1.60;;;19.40;56.10;;;;;;5113214;28;20520;-55
2021/10/15 07:14:14;;;;;;;3.55;1.13;;;19.40;56.10;;;;;;5113627;28;20032;-55
2021/10/15 07:16:40;;;;;;;3.15;1.30;;;19.40;56.20;;;;;;5113233;28;20039;-56
2021/10/15 07:19:06;;;;;;;2.53;1.20;;;19.40;56.10;;;;;;5113063;28;20031;-52
2021/10/15 07:21:31;;;;;;;3.47;1.20;;;19.40;56.10;;;;;;5113218;28;20023;-56
2021/10/15 07:23:57;;;;;;;4.32;1.38;;;19.40;56.10;;;;;;5113319;28;20096;-55
2021/10/15 07:26:23;;;;;;;4.35;1.30;;;19.40;56.10;;;;;;5113016;28;20024;-56
2021/10/15 07:28:48;;;;;;;2.50;1.13;;;19.40;56.10;;;;;;5113024;28;20019;-56
2021/10/15 07:31:14;;;;;;;3.90;1.48;;;19.40;56.10;;;;;;5113079;28;20023;-57
2021/10/15 07:33:40;;;;;;;4.10;1.40;;;19.40;56.10;;;;;;5113084;28;20024;-55
2021/10/15 07:36:05;;;;;;;1.60;1.02;;;19.40;56.10;;;;;;5113000;28;20031;-55
2021/10/15 07:38:31;;;;;;;3.00;1.02;;;19.40;56.10;;;;;;5094622;28;20491;-56
2021/10/15 07:40:57;;;;;;;3.55;1.38;;;19.40;56.10;;;;;;5112706;28;20056;-52
2021/10/15 07:43:22;;;;;;;2.80;1.20;;;19.40;56.10;;;;;;5112894;28;20172;-57
2021/10/15 07:45:48;;;;;;;3.55;1.17;;;19.40;56.10;;;;;;5094663;28;20015;-55
2021/10/15 07:48:13;;;;;;;4.30;1.52;;;19.40;56.10;;;;;;5094835;28;20103;-57
2021/10/15 07:50:39;;;;;;;3.97;1.27;;;19.40;56.10;;;;;;5112633;28;20020;-58
2021/10/15 07:53:05;;;;;;;3.80;1.20;;;19.50;56.10;;;;;;5112680;28;20032;-55
2021/10/15 07:55:30;;;;;;;3.72;1.40;;;19.40;56.10;;;;;;5112758;28;20019;-55
2021/10/15 07:57:56;;;;;;;3.10;1.00;;;19.50;56.00;;;;;;5112568;28;20027;-57
2021/10/15 08:00:22;;;;;;;3.53;1.20;;;19.50;56.10;;;;;;5112774;28;20043;-55
2021/10/15 08:02:47;;;;;;;3.90;1.63;;;19.40;56.00;;;;;;5112732;28;20067;-56
2021/10/15 08:05:14;;;;;;;2.67;1.15;;;19.50;56.00;;;;;;5112749;28;20019;-54
2021/10/15 08:07:42;;;;;;;3.08;1.15;;;19.40;56.00;;;;;;5112718;28;20051;-53
2021/10/15 08:10:09;;;;;;;2.53;1.20;;;19.50;56.00;;;;;;5112908;28;20424;-54
2021/10/15 08:12:35;;;;;;;3.30;1.20;;;19.50;56.00;;;;;;5112945;28;20073;-55
2021/10/15 08:15:00;;;;;;;3.35;1.30;;;19.50;56.00;;;;;;5094539;28;20027;-57
2021/10/15 08:17:26;;;;;;;2.83;1.20;;;19.50;56.00;;;;;;5112543;28;20061;-55
2021/10/15 08:19:51;;;;;;;3.70;1.45;;;19.50;56.00;;;;;;5116430;28;20435;-57
2021/10/15 08:22:17;;;;;;;3.65;1.30;;;19.40;56.00;;;;;;5116282;28;20458;-54
2021/10/15 08:24:42;;;;;;;3.65;1.10;;;19.40;56.00;;;;;;5116330;28;20051;-55
2021/10/15 08:27:08;;;;;;;2.80;1.20;;;19.50;56.10;;;;;;5116564;28;20027;-55
2021/10/15 08:29:38;;;;;;;3.42;1.27;;;19.50;56.10;;;;;;5116697;28;20111;-53
2021/10/15 08:32:04;;;;;;;3.05;1.20;;;19.40;56.00;;;;;;5116441;28;20035;-53
2021/10/15 08:34:30;;;;;;;2.50;1.10;;;19.50;56.10;;;;;;5116360;28;20390;-57
2021/10/15 08:36:56;;;;;;;3.28;1.27;;;19.40;56.10;;;;;;5116046;28;20075;-56
2021/10/15 08:39:26;;;;;;;3.35;1.20;;;19.50;56.10;;;;;;5115868;28;20058;-54
2021/10/15 08:41:52;;;;;;;3.85;1.02;;;19.50;56.10;;;;;;5116005;28;20502;-58
2021/10/15 08:44:18;;;;;;;2.55;1.13;;;19.40;56.10;;;;;;5116266;28;20081;-52
2021/10/15 08:46:43;;;;;;;3.88;1.48;;;19.50;56.10;;;;;;5116322;28;20028;-55
2021/10/15 08:49:09;;;;;;;3.30;1.20;;;19.40;56.10;;;;;;5115834;28;20020;-55
2021/10/15 08:51:37;;;;;;;4.70;1.40;;;19.50;56.10;;;;;;5115888;28;20520;-56
2021/10/15 08:54:04;;;;;;;2.42;1.20;;;19.50;56.10;;;;;;5115987;28;20111;-58
2021/10/15 08:56:34;;;;;;;3.75;1.50;;;19.40;56.10;;;;;;5115913;28;20024;-56
2021/10/15 08:59:07;;;;;;;3.45;1.10;;;19.50;56.10;;;;;;5115952;28;20032;-55
2021/10/15 09:01:42;;;;;;;3.40;1.20;;;19.50;56.10;;;;;;5116066;28;20035;-56
2021/10/15 09:04:07;;;;;;;;;;;19.50;56.10;;;;;;5116385;28;20019;-56
2021/10/15 09:06:38;;;;;;;2.28;0.98;;;19.50;56.10;;;;;;5115610;28;19953;-58
2021/10/15 09:09:04;;;;;;;2.75;1.33;;;19.50;56.10;;;;;;5115311;28;20023;-55
2021/10/15 09:11:45;;;;;;;3.30;1.30;;;19.50;56.10;;;;;;5115782;28;20027;-56
2021/10/15 09:14:28;;;;;;;3.03;1.30;;;19.50;56.10;;;;;;5097242;28;20058;-58
2021/10/15 09:17:09;;;;;;;3.40;1.05;;;19.50;56.10;;;;;;5115236;28;20356;-55
2021/10/15 09:19:36;;;;;;;2.13;0.90;;;19.50;56.20;;;;;;5097071;28;20051;-54
2021/10/15 09:22:04;;;;;;;3.10;1.20;;;19.50;56.10;;;;;;5115379;28;20055;-55
2021/10/15 09:24:40;;;;;;;3.35;1.00;;;19.50;56.20;;;;;;5115300;28;20513;-56
2021/10/15 09:27:22;;;;;;;3.22;1.17;;;19.50;56.10;;;;;;5114788;28;20347;-56
2021/10/15 09:29:50;;;;;;;5.15;2.15;;;19.40;56.50;;;;;;5113769;28;20483;-55
2021/10/15 09:32:17;;;;;;;5.68;2.53;;;18.90;59.20;;;;;;5115177;28;20024;-56
2021/10/15 09:34:44;;;;;;;8.45;2.35;;;18.50;60.80;;;;;;5114705;28;20032;-58
2021/10/15 09:37:22;;;;;;;7.30;2.85;;;18.40;61.40;;;;;;5096213;28;20048;-57
2021/10/15 09:39:48;;;;;;;7.22;2.97;;;18.60;60.70;;;;;;5096265;28;20075;-56
2021/10/15 09:42:18;;;;;;;6.20;2.28;;;18.80;60.60;;;;;;5114679;28;20097;-56
2021/10/15 09:44:44;;;;;;;9.27;2.47;;;18.80;60.70;;;;;;5114715;28;20024;-56
2021/10/15 09:47:14;;;;;;;4.68;2.22;;;18.80;60.80;;;;;;5114723;28;20046;-55
2021/10/15 09:49:51;;;;;;;5.78;2.40;;;18.80;60.80;;;;;;5114505;28;20019;-56
2021/10/15 09:52:33;;;;;;;7.55;2.15;;;18.90;60.90;;;;;;5114528;28;20387;-52
2021/10/15 09:55:06;;;;;;;6.57;1.83;;;18.90;61.00;;;;;;5114834;28;20031;-52
2021/10/15 09:57:38;;;;;;;3.85;1.60;;;18.80;61.10;;;;;;5096444;28;20034;-59
2021/10/15 10:00:11;;;;;;;3.97;1.70;;;18.80;60.70;;;;;;5114419;28;20027;-53
2021/10/15 10:02:37;;;;;;;2.22;1.30;;;18.80;60.00;;;;;;5114246;28;20011;-56
2021/10/15 10:05:05;;;;;;;4.95;2.42;;;18.80;59.70;;;;;;5114686;28;20050;-54
2021/10/15 10:07:34;;;;;;;3.53;1.40;;;18.80;59.80;;;;;;5114342;28;20020;-55
2021/10/15 10:10:00;;;;;;;4.95;1.52;;;18.80;60.10;;;;;;5114233;28;20062;-58
2021/10/15 10:12:27;;;;;;;5.78;1.52;;;18.80;60.00;;;;;;5114240;28;20055;-56
2021/10/15 10:14:53;;;;;;;4.85;1.08;;;18.80;59.80;;;;;;5114076;28;20505;-54
2021/10/15 10:17:23;;;;;;;2.25;1.00;;;18.80;59.30;;;;;;5113976;28;20055;-54
2021/10/15 10:19:52;;;;;;;4.85;1.10;;;18.80;59.30;;;;;;5114191;28;20036;-55
2021/10/15 10:22:19;;;;;;;6.47;1.23;;;18.80;59.40;;;;;;5114429;28;20106;-58
2021/10/15 10:24:51;;;;;;;3.33;0.82;;;18.70;59.20;;;;;;5095862;28;20032;-56
2021/10/15 10:27:46;;;;;;;3.63;1.13;;;18.70;59.40;;;;;;5113774;28;20023;-55
2021/10/15 10:30:12;;;;;;;3.13;0.95;;;18.80;59.10;;;;;;5096128;28;20108;-54
2021/10/15 10:32:37;;;;;;;1.23;0.68;;;18.70;59.30;;;;;;5113963;28;20523;-55
2021/10/15 10:35:26;;;;;;;3.17;0.90;;;18.70;59.40;;;;;;5113766;28;20039;-57
2021/10/15 10:38:19;;;;;;;2.75;0.93;;;18.70;58.90;;;;;;5113782;28;20145;-56
2021/10/15 10:40:59;;;;;;;3.67;0.70;;;18.70;58.80;;;;;;5113058;28;20054;-53
2021/10/15 10:43:44;;;;;;;2.72;0.80;;;18.80;58.80;;;;;;5113710;28;20044;-57
2021/10/15 10:46:13;;;;;;;1.60;0.70;;;18.80;58.90;;;;;;5095398;28;20023;-53
2021/10/15 10:48:51;;;;;;;3.30;0.75;;;18.80;59.30;;;;;;5113321;28;20028;-55
2021/10/15 10:51:20;;;;;;;3.28;0.95;;;18.80;59.10;;;;;;5113476;28;20030;-53
2021/10/15 10:54:01;;;;;;;4.15;0.90;;;18.90;59.10;;;;;;5113494;28;20133;-54
2021/10/15 10:56:40;;;;;;;5.18;0.82;;;19.10;58.70;;;;;;5113274;28;20030;-56
2021/10/15 11:01:58;;;;;;;5.25;0.90;;;19.30;58.30;;;;;;5113234;28;20469;-57
2021/10/15 11:04:31;;;;;;;2.90;0.70;;;19.40;58.00;;;;;;5113385;28;20475;-53
2021/10/15 11:07:20;;;;;;;4.40;0.82;;;19.50;57.70;;;;;;5113331;28;20036;-53
2021/10/15 11:09:54;;;;;;;2.20;0.82;;;19.50;57.60;;;;;;5102487;28;20479;-55
2021/10/15 11:12:26;;;;;;;5.75;1.02;;;19.60;57.50;;;;;;5094565;28;20027;-53
2021/10/15 11:15:03;;;;;;;4.28;0.93;;;19.60;57.40;;;;;;5113126;28;20028;-56
2021/10/15 11:17:38;;;;;;;2.67;0.80;;;19.60;57.40;;;;;;5113160;28;20028;-57
2021/10/15 11:20:06;;;;;;;;;;;19.60;57.30;;;;;;5113870;28;20032;-57
2021/10/15 11:22:31;;;;;;;1.15;0.40;;;19.60;57.30;;;;;;5113104;28;19904;-55
2021/10/15 11:24:57;;;;;;;1.92;0.70;;;19.70;57.20;;;;;;5113051;28;20031;-51
2021/10/15 11:27:23;;;;;;;5.55;0.80;;;19.70;57.20;;;;;;5113363;28;20031;-52
2021/10/15 11:29:50;;;;;;;2.38;0.75;;;19.70;57.10;;;;;;5113043;28;20026;-55
2021/10/15 11:32:45;;;;;;;4.15;0.90;;;19.80;57.10;;;;;;5113129;28;20462;-54
2021/10/15 11:35:23;;;;;;;2.38;0.70;;;19.70;57.10;;;;;;5113060;28;20050;-56
2021/10/15 11:37:55;;;;;;;2.05;0.82;;;19.80;56.90;;;;;;5113235;28;20059;-55
2021/10/15 11:40:37;;;;;;;3.50;0.82;;;20.00;56.50;;;;;;5112965;28;20144;-54
2021/10/15 11:43:27;;;;;;;3.85;0.70;;;20.00;56.20;;;;;;5113121;28;20023;-52
2021/10/15 11:45:54;;;;;;;2.40;0.55;;;20.00;56.50;;;;;;5102877;28;20032;-55
2021/10/15 11:48:27;;;;;;;3.65;0.88;;;20.10;56.10;;;;;;5113026;28;20428;-53
2021/10/15 11:51:07;;;;;;;2.70;0.60;;;20.20;56.00;;;;;;5113322;28;20424;-54
2021/10/15 11:53:37;;;;;;;1.67;0.65;;;20.20;55.90;;;;;;5115219;28;20027;-50
2021/10/15 11:56:06;;;;;;;3.40;0.65;;;20.20;55.90;;;;;;5117299;28;20060;-53
2021/10/15 11:58:37;;;;;;;2.13;0.77;;;20.20;55.90;;;;;;5117076;28;20385;-50
2021/10/15 12:01:10;;;;;;;2.28;0.60;;;20.20;55.90;;;;;;5116970;28;20535;-52
2021/10/15 12:03:40;;;;;;;2.15;0.75;;;20.20;55.90;;;;;;5117108;28;20377;-51
2021/10/15 12:06:34;;;;;;;3.33;0.90;;;20.20;55.90;;;;;;5116835;28;20020;-51
2021/10/15 12:09:12;;;;;;;3.45;0.60;;;20.20;55.90;;;;;;5116722;28;20035;-53
2021/10/15 12:11:40;;;;;;;2.35;0.80;;;20.20;55.80;;;;;;5116561;28;20038;-54
2021/10/15 12:14:27;;;;;;;2.53;0.70;;;20.20;55.80;;;;;;5116670;28;20111;-51
2021/10/15 12:17:04;;;;;;;2.33;0.68;;;20.20;55.80;;;;;;5116706;28;20100;-52
2021/10/15 12:19:32;;;;;;;2.88;0.73;;;20.20;55.80;;;;;;5116367;28;20092;-53
2021/10/15 12:21:59;;;;;;;1.85;0.60;;;20.20;55.80;;;;;;5116555;28;20019;-51
2021/10/15 12:24:39;;;;;;;3.38;0.80;;;20.20;55.80;;;;;;5116618;28;20023;-55
2021/10/15 12:27:09;;;;;;;3.90;0.98;;;20.20;55.90;;;;;;5116550;28;20026;-54
2021/10/15 12:29:39;;;;;;;1.58;0.60;;;20.20;55.90;;;;;;5116457;28;20097;-54
2021/10/15 12:32:09;;;;;;;2.97;0.70;;;20.20;56.00;;;;;;5116208;28;20489;-52
2021/10/15 12:34:51;;;;;;;2.10;0.43;;;20.20;56.00;;;;;;5116307;28;20020;-54
2021/10/15 12:37:25;;;;;;;2.72;0.68;;;20.10;56.10;;;;;;5116209;28;20063;-52
2021/10/15 12:40:16;;;;;;;2.65;0.65;;;20.10;56.10;;;;;;5116061;28;20040;-53
2021/10/15 12:42:44;;;;;;;2.33;0.73;;;20.10;56.20;;;;;;5116354;28;20023;-54
2021/10/15 12:45:14;;;;;;;2.55;0.63;;;20.10;56.20;;;;;;5116093;28;20030;-51
2021/10/15 12:47:52;;;;;;;2.95;0.80;;;20.10;56.20;;;;;;5116278;28;20089;-54
2021/10/15 12:50:17;;;;;;;2.63;0.47;;;20.00;56.20;;;;;;5115994;28;20035;-56
2021/10/15 12:52:43;;;;;;;2.78;0.70;;;20.00;56.20;;;;;;5115980;28;20030;-55
2021/10/15 12:55:20;;;;;;;1.10;0.50;;;20.00;56.10;;;;;;5115816;28;20020;-51
2021/10/15 12:57:48;;;;;;;2.03;0.90;;;20.00;56.10;;;;;;5115922;28;20024;-51
2021/10/15 13:00:19;;;;;;;1.92;0.70;;;20.00;56.00;;;;;;5115805;28;20066;-57
2021/10/15 13:02:45;;;;;;;1.77;0.60;;;20.00;56.10;;;;;;5116016;28;20031;-56
2021/10/15 13:05:11;;;;;;;1.83;0.52;;;20.00;56.00;;;;;;5115392;28;20463;-53
2021/10/15 13:07:38;;;;;;;2.05;0.52;;;20.00;56.10;;;;;;5115487;28;20107;-53